createdAt,value
2023-01-20T00:00:13.686Z,99982.34
2023-01-20T00:03:04.488Z,99974.92
2023-01-20T00:05:35.207Z,99978.66
2023-01-20T00:08:06.276Z,99979.09
2023-01-20T00:10:36.885Z,99982.17
2023-01-20T00:13:07.704Z,99982.19
2023-01-20T00:15:38.389Z,99984.16
2023-01-20T00:18:09.199Z,99983.98
2023-01-20T00:20:39.985Z,99972.30
2023-01-20T00:23:10.795Z,99970.43
2023-01-20T00:25:41.585Z,99977.42
2023-01-20T00:28:12.413Z,99975.81
2023-01-20T00:30:43.168Z,99971.73
2023-01-20T00:33:14.034Z,99971.06
2023-01-20T00:35:44.685Z,99967.16
2023-01-20T00:38:17.809Z,99962.38
2023-01-20T00:40:50.860Z,99958.71
2023-01-20T00:43:21.755Z,99964.45
2023-01-20T00:45:52.536Z,99962.09
2023-01-20T00:48:23.338Z,99962.31
2023-01-20T00:50:54.048Z,99960.23
2023-01-20T00:53:24.733Z,99956.42
2023-01-20T00:55:55.621Z,99956.26
2023-01-20T00:58:26.260Z,99967.56
2023-01-20T01:00:58.926Z,99967.09
2023-01-20T01:03:30.145Z,99951.08
2023-01-20T01:06:08.268Z,99952.30
2023-01-20T01:08:39.401Z,99959.96
2023-01-20T01:11:10.212Z,99956.79
2023-01-20T01:13:41.077Z,99958.30
2023-01-20T01:16:15.298Z,99951.23
2023-01-20T01:18:46.412Z,99946.14
2023-01-20T01:21:17.650Z,99946.70
2023-01-20T01:23:48.431Z,99961.10
2023-01-20T01:26:19.175Z,99953.27
2023-01-20T01:28:50.615Z,99938.48
2023-01-20T01:31:22.276Z,99934.71
2023-01-20T01:33:53.301Z,99942.22
2023-01-20T01:36:24.033Z,99941.05
2023-01-20T01:38:57.888Z,99944.04
2023-01-20T01:41:30.150Z,99943.27
2023-01-20T01:44:08.465Z,99941.61
2023-01-20T01:46:39.428Z,99944.27
2023-01-20T01:49:13.327Z,99941.13
2023-01-20T01:51:44.450Z,99941.10
2023-01-20T01:54:16.409Z,99939.66
2023-01-20T01:56:47.395Z,99937.75
2023-01-20T01:59:18.078Z,99939.00
2023-01-20T02:01:50.209Z,99935.31
2023-01-20T02:04:22.375Z,99934.48
2023-01-20T02:06:54.223Z,99934.60
2023-01-20T02:09:25.025Z,99931.73
2023-01-20T02:11:57.327Z,99929.98
2023-01-20T02:14:28.382Z,99924.59
2023-01-20T02:17:00.589Z,99920.74
2023-01-20T02:19:44.649Z,99927.09
2023-01-20T02:22:18.043Z,99936.41
2023-01-20T02:25:06.590Z,99928.11
2023-01-20T02:27:42.406Z,99920.68
2023-01-20T02:30:22.423Z,99913.10
2023-01-20T02:32:53.936Z,99907.02
2023-01-20T02:35:25.995Z,99909.77
2023-01-20T02:38:00.206Z,99900.52
2023-01-20T02:40:32.016Z,99888.09
2023-01-20T02:43:05.075Z,99891.73
2023-01-20T02:45:37.232Z,99903.04
2023-01-20T02:48:09.722Z,99901.38
2023-01-20T02:50:41.681Z,99885.48
2023-01-20T02:53:12.542Z,99876.98
2023-01-20T02:55:44.041Z,99868.20
2023-01-20T02:58:15.735Z,99866.05
2023-01-20T03:00:48.749Z,99864.31
2023-01-20T03:03:20.079Z,99860.83
2023-01-20T03:05:53.247Z,99857.16
2023-01-20T03:08:24.565Z,99854.20
2023-01-20T03:10:55.825Z,99855.04
2023-01-20T03:13:27.655Z,99861.39
2023-01-20T03:15:59.615Z,99856.39
2023-01-20T03:18:31.155Z,99858.73
2023-01-20T03:21:02.094Z,99857.34
2023-01-20T03:23:33.513Z,99856.08
2023-01-20T03:26:06.617Z,99855.66
2023-01-20T03:28:37.317Z,99852.00
2023-01-20T03:31:11.690Z,99849.25
2023-01-20T03:33:42.610Z,99846.46
2023-01-20T03:36:13.413Z,99852.60
2023-01-20T03:38:44.324Z,99861.08
2023-01-20T03:41:18.530Z,99857.57
2023-01-20T03:43:54.073Z,99859.81
2023-01-20T03:46:25.835Z,99854.90
2023-01-20T03:48:59.133Z,99850.05
2023-01-20T03:51:31.588Z,99845.66
2023-01-20T03:54:02.892Z,99832.88
2023-01-20T03:56:36.911Z,99829.31
2023-01-20T03:59:07.683Z,99828.57
2023-01-20T04:01:40.035Z,99827.27
2023-01-20T04:04:11.327Z,99820.73
2023-01-20T04:06:42.298Z,99817.59
2023-01-20T04:09:14.838Z,99810.61
2023-01-20T04:11:45.757Z,99812.88
2023-01-20T04:14:16.502Z,99810.08
2023-01-20T04:16:51.977Z,99810.27
2023-01-20T04:19:22.715Z,99820.31
2023-01-20T04:21:55.091Z,99823.41
2023-01-20T04:24:27.552Z,99821.02
2023-01-20T04:26:58.894Z,99810.55
2023-01-20T04:29:30.242Z,99816.10
2023-01-20T04:32:02.073Z,99827.09
2023-01-20T04:34:33.660Z,99834.98
2023-01-20T04:37:05.851Z,99830.83
2023-01-20T04:39:37.386Z,99826.50
2023-01-20T04:42:08.840Z,99829.33
2023-01-20T04:44:40.210Z,99825.48
2023-01-20T04:47:11.548Z,99824.34
2023-01-20T04:49:43.121Z,99822.27
2023-01-20T04:52:14.733Z,99831.73
2023-01-20T04:54:46.095Z,99829.84
2023-01-20T04:57:17.524Z,99825.83
2023-01-20T04:59:50.040Z,99830.52
2023-01-20T05:02:21.760Z,99836.05
2023-01-20T05:04:54.088Z,99829.95
2023-01-20T05:07:25.465Z,99829.52
2023-01-20T05:09:56.772Z,99835.50
2023-01-20T05:12:28.346Z,99836.30
2023-01-20T05:14:59.822Z,99837.63
2023-01-20T05:17:31.227Z,99833.35
2023-01-20T05:20:02.833Z,99828.52
2023-01-20T05:22:34.861Z,99832.80
2023-01-20T05:25:07.012Z,99828.48
2023-01-20T05:27:38.713Z,99824.80
2023-01-20T05:30:11.500Z,99830.08
2023-01-20T05:32:42.857Z,99829.58
2023-01-20T05:35:40.393Z,99830.58
2023-01-20T05:38:11.931Z,99827.69
2023-01-20T05:40:43.512Z,99825.61
2023-01-20T05:43:15.982Z,99830.58
2023-01-20T05:45:47.231Z,99841.15
2023-01-20T05:48:18.692Z,99852.98
2023-01-20T05:50:50.113Z,99855.54
2023-01-20T05:53:23.252Z,99857.64
2023-01-20T05:56:02.165Z,99852.61
2023-01-20T05:58:34.444Z,99850.32
2023-01-20T06:01:09.342Z,99841.84
2023-01-20T06:03:40.967Z,99841.92
2023-01-20T06:06:15.772Z,99849.31
2023-01-20T06:08:47.354Z,99853.27
2023-01-20T06:11:19.239Z,99855.33
2023-01-20T06:13:50.868Z,99858.45
2023-01-20T06:16:22.610Z,99852.05
2023-01-20T06:18:54.365Z,99856.98
2023-01-20T06:21:49.729Z,99856.13
2023-01-20T06:24:21.619Z,99855.14
2023-01-20T06:26:53.122Z,99849.54
2023-01-20T06:29:25.291Z,99849.52
2023-01-20T06:31:56.831Z,99849.71
2023-01-20T06:34:29.997Z,99849.57
2023-01-20T06:37:02.461Z,99846.56
2023-01-20T06:39:34.110Z,99855.36
2023-01-20T06:42:06.209Z,99867.92
2023-01-20T06:44:38.037Z,99873.55
2023-01-20T06:47:09.834Z,99876.64
2023-01-20T06:49:41.519Z,99885.41
2023-01-20T06:52:36.995Z,99883.77
2023-01-20T06:55:09.183Z,99881.96
2023-01-20T06:57:41.361Z,99883.61
2023-01-20T07:00:14.990Z,99887.62
2023-01-20T07:02:46.252Z,99887.46
2023-01-20T07:05:17.956Z,99887.95
2023-01-20T07:07:50.245Z,99896.55
2023-01-20T07:10:22.159Z,99896.70
2023-01-20T07:12:53.625Z,99894.23
2023-01-20T07:15:25.205Z,99891.91
2023-01-20T07:17:56.722Z,99879.88
2023-01-20T07:20:28.486Z,99877.36
2023-01-20T07:23:02.130Z,99874.63
2023-01-20T07:25:34.984Z,99870.30
2023-01-20T07:28:06.528Z,99864.86
2023-01-20T07:30:38.169Z,99866.38
2023-01-20T07:33:09.723Z,99864.96
2023-01-20T07:35:41.608Z,99860.28
2023-01-20T07:38:13.394Z,99857.27
2023-01-20T07:40:46.027Z,99851.00
2023-01-20T07:43:17.564Z,99849.90
2023-01-20T07:45:49.147Z,99846.34
2023-01-20T07:48:21.228Z,99849.67
2023-01-20T07:50:57.983Z,99856.16
2023-01-20T07:53:29.726Z,99857.70
2023-01-20T07:56:03.176Z,99864.31
2023-01-20T07:58:34.930Z,99863.34
2023-01-20T08:01:11.762Z,99862.36
2023-01-20T08:03:45.965Z,99872.21
2023-01-20T08:06:21.600Z,99881.66
2023-01-20T08:08:53.249Z,99872.19
2023-01-20T08:11:24.902Z,99866.38
2023-01-20T08:13:56.412Z,99860.30
2023-01-20T08:16:28.207Z,99856.34
2023-01-20T08:18:59.436Z,99857.86
2023-01-20T08:21:32.064Z,99855.41
2023-01-20T08:24:04.735Z,99857.30
2023-01-20T08:26:37.083Z,99863.13
2023-01-20T08:29:09.617Z,99864.07
2023-01-20T08:31:41.630Z,99851.64
2023-01-20T08:34:13.547Z,99848.77
2023-01-20T08:36:45.164Z,99845.58
2023-01-20T08:39:18.664Z,99852.23
2023-01-20T08:41:52.066Z,99849.67
2023-01-20T08:44:23.442Z,99844.45
2023-01-20T08:46:58.288Z,99844.31
2023-01-20T08:49:29.843Z,99846.27
2023-01-20T08:52:01.989Z,99841.09
2023-01-20T08:54:34.796Z,99853.60
2023-01-20T08:57:06.275Z,99856.38
2023-01-20T08:59:37.526Z,99847.27
2023-01-20T09:02:10.548Z,99850.86
2023-01-20T09:04:42.205Z,99850.77
2023-01-20T09:07:13.933Z,99852.14
2023-01-20T09:09:45.514Z,99849.96
2023-01-20T09:12:18.032Z,99849.88
2023-01-20T09:14:49.423Z,99850.56
2023-01-20T09:17:21.240Z,99832.96
2023-01-20T09:19:52.989Z,99820.84
2023-01-20T09:22:24.390Z,99823.74
2023-01-20T09:24:55.663Z,99824.48
2023-01-20T09:27:27.123Z,99815.38
2023-01-20T09:29:58.687Z,99812.60
2023-01-20T09:32:30.239Z,99803.17
2023-01-20T09:35:01.517Z,99801.55
2023-01-20T09:37:50.553Z,99796.27
2023-01-20T09:40:40.376Z,99794.77
2023-01-20T09:43:34.372Z,99785.92
2023-01-20T09:46:09.204Z,99783.26
2023-01-20T09:49:00.685Z,99780.46
2023-01-20T09:51:50.305Z,99766.02
2023-01-20T09:54:22.358Z,99764.66
2023-01-20T09:56:54.004Z,99760.29
2023-01-20T09:59:26.563Z,99756.59
2023-01-20T10:01:58.628Z,99759.34
2023-01-20T10:04:33.230Z,99754.10
2023-01-20T10:07:08.438Z,99746.45
2023-01-20T10:09:41.885Z,99745.59
2023-01-20T10:12:14.605Z,99741.16
2023-01-20T10:14:46.742Z,99738.15
2023-01-20T10:17:19.537Z,99729.23
2023-01-20T10:19:51.848Z,99729.61
2023-01-20T10:22:24.282Z,99719.83
2023-01-20T10:24:56.658Z,99717.75
2023-01-20T10:27:28.262Z,99711.00
2023-01-20T10:30:00.466Z,99705.63
2023-01-20T10:32:33.535Z,99697.45
2023-01-20T10:35:09.042Z,99696.98
2023-01-20T10:37:40.455Z,99698.73
2023-01-20T10:40:17.275Z,99701.88
2023-01-20T10:42:49.493Z,99704.19
2023-01-20T10:45:21.378Z,99689.85
2023-01-20T10:47:53.639Z,99684.25
2023-01-20T10:50:28.619Z,99678.04
2023-01-20T10:53:19.169Z,99674.27
2023-01-20T10:55:57.234Z,99671.83
2023-01-20T10:58:30.066Z,99664.81
2023-01-20T11:01:02.984Z,99666.70
2023-01-20T11:03:35.910Z,99665.10
2023-01-20T11:06:07.723Z,99663.83
2023-01-20T11:08:38.979Z,99660.77
2023-01-20T11:11:12.810Z,99653.84
2023-01-20T11:13:44.707Z,99650.23
2023-01-20T11:16:18.151Z,99643.02
2023-01-20T11:18:57.338Z,99642.02
2023-01-20T11:21:30.017Z,99639.49
2023-01-20T11:24:01.574Z,99633.17
2023-01-20T11:26:36.060Z,99630.45
2023-01-20T11:29:26.037Z,99616.14
2023-01-20T11:31:57.521Z,99609.77
2023-01-20T11:34:29.364Z,99608.36
2023-01-20T11:40:06.147Z,99600.27
2023-01-20T11:42:44.974Z,99596.23
2023-01-20T11:45:26.672Z,99594.50
2023-01-20T11:48:02.037Z,99587.09
2023-01-20T11:50:35.392Z,99581.81
2023-01-20T11:53:28.603Z,99579.96
2023-01-20T11:55:59.990Z,99582.35
2023-01-20T11:58:33.404Z,99577.56
2023-01-20T12:01:05.405Z,99575.84
2023-01-20T12:03:40.504Z,99563.80
2023-01-20T12:06:14.202Z,99564.49
2023-01-20T12:08:46.921Z,99561.31
2023-01-20T12:11:18.704Z,99565.84
2023-01-20T12:14:11.368Z,99569.27
2023-01-20T12:16:42.223Z,99567.78
2023-01-20T12:19:15.105Z,99570.63
2023-01-20T12:21:47.551Z,99566.50
2023-01-20T12:24:20.263Z,99568.08
2023-01-20T12:26:51.115Z,99561.38
2023-01-20T12:29:23.025Z,99563.39
2023-01-20T12:31:54.695Z,99559.90
2023-01-20T12:34:27.693Z,99553.19
2023-01-20T12:37:02.004Z,99542.05
2023-01-20T12:39:45.130Z,99535.05
2023-01-20T12:42:29.798Z,99524.16
2023-01-20T12:45:01.221Z,99510.98
2023-01-20T12:47:39.042Z,99488.39
2023-01-20T12:50:15.574Z,99483.11
2023-01-20T12:52:50.116Z,99516.69
2023-01-20T12:55:23.849Z,99527.91
2023-01-20T12:57:57.699Z,99528.95
2023-01-20T13:00:48.001Z,99519.58
2023-01-20T13:03:24.927Z,99523.00
2023-01-20T13:06:09.084Z,99525.91
2023-01-20T13:08:41.865Z,99524.38
2023-01-20T13:11:15.854Z,99516.06
2023-01-20T13:13:57.342Z,99517.34
2023-01-20T13:16:32.813Z,99519.51
2023-01-20T13:19:07.297Z,99515.52
2023-01-20T13:21:38.078Z,99507.38
2023-01-20T13:24:09.060Z,99504.96
2023-01-20T13:26:40.187Z,99511.67
2023-01-20T13:29:14.920Z,99509.16
2023-01-20T13:31:46.526Z,99491.54
2023-01-20T13:34:37.106Z,99491.95
2023-01-20T13:37:23.592Z,99495.37
2023-01-20T13:39:55.676Z,99497.84
2023-01-20T13:42:30.246Z,99497.70
2023-01-20T13:45:20.188Z,99496.89
2023-01-20T13:47:52.647Z,99501.56
2023-01-20T13:50:25.085Z,99494.11
2023-01-20T13:53:06.205Z,99474.23
2023-01-20T13:55:52.813Z,99482.17
2023-01-20T13:58:23.947Z,99493.82
2023-01-20T14:00:56.222Z,99490.99
2023-01-20T14:03:29.133Z,99485.89
2023-01-20T14:06:01.017Z,99485.39
2023-01-20T14:08:32.305Z,99492.02
2023-01-20T14:11:08.030Z,99493.23
2023-01-20T14:13:38.759Z,99493.29
2023-01-20T14:16:18.198Z,99493.60
2023-01-20T14:18:49.060Z,99494.41
2023-01-20T14:21:21.693Z,99499.70
2023-01-20T14:23:52.638Z,99504.81
2023-01-20T14:26:24.184Z,99504.48
2023-01-20T14:28:55.375Z,99507.02
2023-01-20T14:31:36.764Z,99511.34
2023-01-20T14:34:23.469Z,99512.86
2023-01-20T14:36:54.985Z,99511.07
2023-01-20T14:39:25.905Z,99513.75
2023-01-20T14:41:57.007Z,99514.23
2023-01-20T14:44:29.447Z,99514.30
2023-01-20T14:47:01.922Z,99511.92
2023-01-20T14:49:34.178Z,99511.94
2023-01-20T14:52:05.299Z,99512.28
2023-01-20T14:54:37.429Z,99520.30
2023-01-20T14:57:26.371Z,99518.17
2023-01-20T15:00:19.835Z,99517.59
2023-01-20T15:03:05.315Z,99522.04
2023-01-20T15:05:41.944Z,99521.45
2023-01-20T15:08:24.522Z,99523.19
2023-01-20T15:11:12.130Z,99525.07
2023-01-20T15:13:43.435Z,99527.34
2023-01-20T15:16:19.259Z,99533.52
2023-01-20T15:19:04.421Z,99537.77
2023-01-20T15:21:36.514Z,99542.56
2023-01-20T15:24:10.184Z,99542.58
2023-01-20T15:26:41.003Z,99546.38
2023-01-20T15:29:19.982Z,99539.89
2023-01-20T15:31:51.435Z,99545.98
2023-01-20T15:34:23.044Z,99550.66
2023-01-20T15:36:55.204Z,99545.10
2023-01-20T15:39:29.374Z,99551.17
2023-01-20T15:42:01.652Z,99556.43
2023-01-20T15:44:32.380Z,99562.80
2023-01-20T15:47:03.313Z,99567.79
2023-01-20T15:49:34.089Z,99560.33
2023-01-20T15:52:04.977Z,99564.38
2023-01-20T15:54:35.873Z,99570.98
2023-01-20T15:57:06.605Z,99571.48
2023-01-20T15:59:37.365Z,99572.77
2023-01-20T16:02:10.926Z,99576.54
2023-01-20T16:04:41.967Z,99576.11
2023-01-20T16:07:13.584Z,99572.64
2023-01-20T16:09:45.015Z,99570.71
2023-01-20T16:12:16.053Z,99569.10
2023-01-20T16:14:47.058Z,99567.77
2023-01-20T16:17:19.257Z,99571.48
2023-01-20T16:19:50.550Z,99570.31
2023-01-20T16:22:21.250Z,99577.52
2023-01-20T16:24:52.747Z,99580.74
2023-01-20T16:27:23.844Z,99584.48
2023-01-20T16:29:56.145Z,99588.66
2023-01-20T16:32:27.281Z,99597.31
2023-01-20T16:34:58.993Z,99600.96
2023-01-20T16:37:29.823Z,99600.02
2023-01-20T16:40:01.055Z,99606.14
2023-01-20T16:42:32.191Z,99606.39
2023-01-20T16:45:03.046Z,99604.05
2023-01-20T16:47:33.837Z,99603.59
2023-01-20T16:50:04.707Z,99602.69
2023-01-20T16:52:35.492Z,99611.06
2023-01-20T16:55:06.962Z,99612.17
2023-01-20T16:57:37.825Z,99618.72
2023-01-20T17:00:10.248Z,99620.30
2023-01-20T17:02:41.066Z,99626.33
2023-01-20T17:05:14.016Z,99621.11
2023-01-20T17:07:44.806Z,99618.00
2023-01-20T17:10:16.294Z,99619.46
2023-01-20T17:12:48.908Z,99619.98
2023-01-20T17:15:20.022Z,99623.30
2023-01-20T17:17:51.169Z,99620.90
2023-01-20T17:20:22.001Z,99618.04
2023-01-20T17:22:53.256Z,99625.62
2023-01-20T17:25:24.258Z,99626.88
2023-01-20T17:27:55.237Z,99626.86
2023-01-20T17:30:26.720Z,99636.77
2023-01-20T17:32:57.732Z,99641.27
2023-01-20T17:35:29.318Z,99644.38
2023-01-20T17:38:00.224Z,99649.71
2023-01-20T17:40:31.990Z,99651.67
2023-01-20T17:43:04.466Z,99650.98
2023-01-20T17:45:35.353Z,99656.04
2023-01-20T17:48:06.316Z,99652.27
2023-01-20T17:50:39.067Z,99654.58
2023-01-20T17:53:10.329Z,99651.42
2023-01-20T17:55:41.251Z,99654.23
2023-01-20T17:58:13.676Z,99654.02
2023-01-20T18:00:44.532Z,99652.59
2023-01-20T18:03:16.257Z,99656.52
2023-01-20T18:05:47.167Z,99655.44
2023-01-20T18:08:17.838Z,99658.69
2023-01-20T18:10:48.728Z,99663.56
2023-01-20T18:13:19.463Z,99670.74
2023-01-20T18:15:50.308Z,99666.80
2023-01-20T18:18:21.060Z,99668.30
2023-01-20T18:20:52.035Z,99674.98
2023-01-20T18:23:22.729Z,99680.58
2023-01-20T18:25:56.761Z,99681.11
2023-01-20T18:28:28.548Z,99684.58
2023-01-20T18:31:03.299Z,99690.96
2023-01-20T18:33:34.340Z,99701.19
2023-01-20T18:36:05.440Z,99712.05
2023-01-20T18:38:36.297Z,99733.27
2023-01-20T18:41:07.349Z,99738.65
2023-01-20T18:43:38.149Z,99742.11
2023-01-20T18:46:10.373Z,99745.52
2023-01-20T18:48:41.346Z,99754.41
2023-01-20T18:51:14.988Z,99759.66
2023-01-20T18:53:46.215Z,99767.95
2023-01-20T18:56:19.066Z,99770.13
2023-01-20T18:58:49.848Z,99793.35
2023-01-20T19:01:21.238Z,99800.70
2023-01-20T19:03:52.411Z,99813.83
2023-01-20T19:06:23.627Z,99824.83
2023-01-20T19:08:54.425Z,99831.94
2023-01-20T19:11:26.271Z,99848.71
2023-01-20T19:13:57.081Z,99850.59
2023-01-20T19:16:28.502Z,99852.01
2023-01-20T19:18:59.948Z,99855.09
2023-01-20T19:21:34.176Z,99867.77
2023-01-20T19:24:08.007Z,99879.36
2023-01-20T19:26:39.287Z,99879.08
2023-01-20T19:29:13.008Z,99887.61
2023-01-20T19:31:44.122Z,99887.00
2023-01-20T19:34:14.998Z,99887.62
2023-01-20T19:36:46.052Z,99899.38
2023-01-20T19:39:17.064Z,99902.98
2023-01-20T19:41:48.102Z,99906.24
2023-01-20T19:44:19.329Z,99919.79
2023-01-20T19:46:50.103Z,99921.75
2023-01-20T19:49:20.967Z,99923.39
2023-01-20T19:51:51.823Z,99924.36
2023-01-20T19:54:24.415Z,99937.36
2023-01-20T19:56:55.332Z,99944.91
2023-01-20T19:59:26.196Z,99949.27
2023-01-20T20:01:57.115Z,99945.47
2023-01-20T20:04:29.349Z,99940.23
2023-01-20T20:07:00.185Z,99944.63
2023-01-20T20:09:31.122Z,99944.66
2023-01-20T20:12:06.275Z,99937.70
2023-01-20T20:14:38.381Z,99934.10
2023-01-20T20:17:09.321Z,99936.94
2023-01-20T20:19:40.147Z,99934.86
2023-01-20T20:22:11.019Z,99934.33
2023-01-20T20:24:41.923Z,99937.74
2023-01-20T20:27:12.937Z,99945.35
2023-01-20T20:29:44.135Z,99955.22
2023-01-20T20:32:16.859Z,99965.45
2023-01-20T20:34:47.706Z,99976.42
2023-01-20T20:37:18.406Z,99987.13
2023-01-20T20:39:49.337Z,100002.56
2023-01-20T20:42:20.128Z,100002.89
2023-01-20T20:44:50.881Z,100007.81
2023-01-20T20:47:21.657Z,100005.50
2023-01-20T20:49:53.035Z,100029.34
2023-01-20T20:52:24.139Z,100034.11
2023-01-20T20:54:56.228Z,100039.73
2023-01-20T20:57:27.186Z,100048.33
2023-01-20T20:59:59.696Z,100052.20
2023-01-20T21:02:30.830Z,100068.23
2023-01-20T21:05:01.552Z,100063.86
2023-01-20T21:07:32.433Z,100065.58
2023-01-20T21:10:04.784Z,100075.80
2023-01-20T21:12:35.685Z,100077.61
2023-01-20T21:15:07.700Z,100078.68
2023-01-20T21:17:38.692Z,100077.33
2023-01-20T21:20:10.589Z,100076.27
2023-01-20T21:22:41.607Z,100082.30
2023-01-20T21:25:12.530Z,100093.78
2023-01-20T21:27:45.165Z,100094.59
2023-01-20T21:30:16.461Z,100100.30
2023-01-20T21:32:47.375Z,100108.58
2023-01-20T21:35:18.213Z,100115.26
2023-01-20T21:37:54.374Z,100116.80
2023-01-20T21:40:25.044Z,100119.45
2023-01-20T21:43:17.243Z,100127.45
2023-01-20T21:45:54.144Z,100132.45
2023-01-20T21:48:43.099Z,100136.00
2023-01-20T21:51:31.571Z,100147.30
2023-01-20T21:54:02.490Z,100150.69
2023-01-20T21:56:33.141Z,100161.20
2023-01-20T21:59:03.948Z,100164.21
2023-01-20T22:01:34.833Z,100171.43
2023-01-20T22:04:05.713Z,100170.79
2023-01-20T22:06:36.441Z,100178.00
2023-01-20T22:09:07.262Z,100178.45
2023-01-20T22:11:37.968Z,100179.64
2023-01-20T22:14:08.786Z,100179.92
2023-01-20T22:16:39.647Z,100182.33
2023-01-20T22:19:12.830Z,100190.81
2023-01-20T22:21:43.543Z,100189.53
2023-01-20T22:24:14.414Z,100205.70
2023-01-20T22:26:46.779Z,100209.53
2023-01-20T22:29:17.752Z,100209.17
2023-01-20T22:31:51.530Z,100207.94
2023-01-20T22:34:23.143Z,100211.07
2023-01-20T22:36:55.819Z,100208.79
2023-01-20T22:39:27.856Z,100216.77
2023-01-20T22:41:59.365Z,100212.18
2023-01-20T22:44:30.828Z,100208.89
2023-01-20T22:47:02.187Z,100211.42
2023-01-20T22:49:33.775Z,100214.66
2023-01-20T22:52:05.390Z,100218.73
2023-01-20T22:54:36.799Z,100215.95
2023-01-20T22:57:07.999Z,100230.05
2023-01-20T22:59:39.587Z,100233.04
2023-01-20T23:02:10.989Z,100234.48
2023-01-20T23:04:42.707Z,100232.36
2023-01-20T23:07:14.458Z,100240.30
2023-01-20T23:09:46.541Z,100242.96
2023-01-20T23:12:17.828Z,100244.08
2023-01-20T23:15:02.801Z,100246.98
2023-01-20T23:17:34.778Z,100252.21
2023-01-20T23:20:06.942Z,100245.50
2023-01-20T23:22:38.137Z,100246.98
2023-01-20T23:25:10.549Z,100252.08
2023-01-20T23:27:41.967Z,100254.66
2023-01-20T23:30:14.343Z,100265.64
2023-01-20T23:32:46.195Z,100263.52
2023-01-20T23:35:17.687Z,100258.48
2023-01-20T23:37:49.764Z,100264.16
2023-01-20T23:40:21.748Z,100258.08
2023-01-20T23:42:53.130Z,100257.73
2023-01-20T23:45:24.697Z,100264.61
2023-01-20T23:47:56.060Z,100268.72
2023-01-20T23:50:27.389Z,100278.11
2023-01-20T23:52:59.183Z,100283.73
2023-01-20T23:55:30.807Z,100281.03
2023-01-20T23:58:02.303Z,100289.98
